sensor_id;sensor_type;location;lat;lon;timestamp;temperature;humidity
77985;DHT22;67177;47.240;-1.546;2023-02-02T00:00:52;8.20;63.30
77985;DHT22;67177;47.240;-1.546;2023-02-02T00:03:17;8.10;63.30
77985;DHT22;67177;47.240;-1.546;2023-02-02T00:05:53;8.10;63.40
77985;DHT22;67177;47.240;-1.546;2023-02-02T00:08:20;8.10;63.30
77985;DHT22;67177;47.240;-1.546;2023-02-02T00:10:46;8.10;63.40
77985;DHT22;67177;47.240;-1.546;2023-02-02T00:13:13;8.10;63.20
77985;DHT22;67177;47.240;-1.546;2023-02-02T00:15:39;8.00;63.30
77985;DHT22;67177;47.240;-1.546;2023-02-02T00:18:05;8.00;63.30
77985;DHT22;67177;47.240;-1.546;2023-02-02T00:20:31;8.00;63.30
77985;DHT22;67177;47.240;-1.546;2023-02-02T00:22:59;8.00;63.40
77985;DHT22;67177;47.240;-1.546;2023-02-02T00:25:25;7.90;63.40
77985;DHT22;67177;47.240;-1.546;2023-02-02T00:27:50;7.90;63.50
77985;DHT22;67177;47.240;-1.546;2023-02-02T00:30:16;7.80;63.70
77985;DHT22;67177;47.240;-1.546;2023-02-02T00:32:42;7.80;63.80
77985;DHT22;67177;47.240;-1.546;2023-02-02T00:35:08;7.80;63.70
77985;DHT22;67177;47.240;-1.546;2023-02-02T00:37:34;7.80;63.70
77985;DHT22;67177;47.240;-1.546;2023-02-02T00:40:00;7.80;63.70
77985;DHT22;67177;47.240;-1.546;2023-02-02T00:42:25;7.80;63.60
77985;DHT22;67177;47.240;-1.546;2023-02-02T00:44:51;7.80;63.70
77985;DHT22;67177;47.240;-1.546;2023-02-02T00:47:35;7.70;63.60
77985;DHT22;67177;47.240;-1.546;2023-02-02T00:50:01;7.70;63.80
77985;DHT22;67177;47.240;-1.546;2023-02-02T00:52:27;7.70;63.80
77985;DHT22;67177;47.240;-1.546;2023-02-02T00:54:53;7.70;63.90
77985;DHT22;67177;47.240;-1.546;2023-02-02T00:57:19;7.60;63.90
77985;DHT22;67177;47.240;-1.546;2023-02-02T00:59:44;7.70;63.80
77985;DHT22;67177;47.240;-1.546;2023-02-02T01:02:11;7.70;63.60
77985;DHT22;67177;47.240;-1.546;2023-02-02T01:04:37;7.60;63.70
77985;DHT22;67177;47.240;-1.546;2023-02-02T01:07:03;7.70;63.50
77985;DHT22;67177;47.240;-1.546;2023-02-02T01:09:28;7.60;63.60
77985;DHT22;67177;47.240;-1.546;2023-02-02T01:11:54;7.60;63.70
77985;DHT22;67177;47.240;-1.546;2023-02-02T01:14:20;7.60;63.60
77985;DHT22;67177;47.240;-1.546;2023-02-02T01:16:46;7.60;63.50
77985;DHT22;67177;47.240;-1.546;2023-02-02T01:19:13;7.60;63.60
77985;DHT22;67177;47.240;-1.546;2023-02-02T01:21:39;7.60;63.50
77985;DHT22;67177;47.240;-1.546;2023-02-02T01:24:05;7.60;63.40
77985;DHT22;67177;47.240;-1.546;2023-02-02T01:26:30;7.60;63.20
77985;DHT22;67177;47.240;-1.546;2023-02-02T01:28:56;7.60;63.20
77985;DHT22;67177;47.240;-1.546;2023-02-02T01:31:22;7.60;63.00
77985;DHT22;67177;47.240;-1.546;2023-02-02T01:33:48;7.60;62.90
77985;DHT22;67177;47.240;-1.546;2023-02-02T01:36:16;7.60;62.60
77985;DHT22;67177;47.240;-1.546;2023-02-02T01:38:43;7.60;62.20
77985;DHT22;67177;47.240;-1.546;2023-02-02T01:41:17;7.60;62.30
77985;DHT22;67177;47.240;-1.546;2023-02-02T01:46:20;7.60;62.10
77985;DHT22;67177;47.240;-1.546;2023-02-02T01:49:14;7.60;62.00
77985;DHT22;67177;47.240;-1.546;2023-02-02T01:51:54;7.50;61.90
77985;DHT22;67177;47.240;-1.546;2023-02-02T01:54:27;7.50;61.80
77985;DHT22;67177;47.240;-1.546;2023-02-02T01:57:07;7.50;61.90
77985;DHT22;67177;47.240;-1.546;2023-02-02T01:59:34;7.50;61.80
77985;DHT22;67177;47.240;-1.546;2023-02-02T02:02:01;7.50;61.70
77985;DHT22;67177;47.240;-1.546;2023-02-02T02:04:29;7.50;61.40
77985;DHT22;67177;47.240;-1.546;2023-02-02T02:06:55;7.60;61.40
77985;DHT22;67177;47.240;-1.546;2023-02-02T02:09:21;7.60;61.30
77985;DHT22;67177;47.240;-1.546;2023-02-02T02:11:47;7.60;61.30
77985;DHT22;67177;47.240;-1.546;2023-02-02T02:14:14;7.70;61.20
77985;DHT22;67177;47.240;-1.546;2023-02-02T02:26:37;7.70;61.20
77985;DHT22;67177;47.240;-1.546;2023-02-02T02:40:36;7.80;61.20
77985;DHT22;67177;47.240;-1.546;2023-02-02T02:43:13;7.80;61.00
77985;DHT22;67177;47.240;-1.546;2023-02-02T02:45:41;7.80;60.80
77985;DHT22;67177;47.240;-1.546;2023-02-02T02:48:09;7.80;60.80
77985;DHT22;67177;47.240;-1.546;2023-02-02T02:50:35;7.80;60.80
77985;DHT22;67177;47.240;-1.546;2023-02-02T02:53:04;7.90;60.80
77985;DHT22;67177;47.240;-1.546;2023-02-02T02:58:39;7.90;60.50
77985;DHT22;67177;47.240;-1.546;2023-02-02T03:01:16;7.90;60.50
77985;DHT22;67177;47.240;-1.546;2023-02-02T03:04:11;7.90;60.40
77985;DHT22;67177;47.240;-1.546;2023-02-02T03:06:49;7.90;60.70
77985;DHT22;67177;47.240;-1.546;2023-02-02T03:09:20;7.90;60.70
77985;DHT22;67177;47.240;-1.546;2023-02-02T03:11:47;7.90;60.70
77985;DHT22;67177;47.240;-1.546;2023-02-02T03:14:12;7.90;60.60
77985;DHT22;67177;47.240;-1.546;2023-02-02T03:16:38;7.90;60.80
77985;DHT22;67177;47.240;-1.546;2023-02-02T03:19:05;8.00;60.70
77985;DHT22;67177;47.240;-1.546;2023-02-02T03:21:32;8.00;60.70
77985;DHT22;67177;47.240;-1.546;2023-02-02T03:23:58;8.00;60.40
77985;DHT22;67177;47.240;-1.546;2023-02-02T03:26:25;8.00;60.20
77985;DHT22;67177;47.240;-1.546;2023-02-02T03:28:51;8.00;60.30
77985;DHT22;67177;47.240;-1.546;2023-02-02T03:31:18;8.10;60.20
77985;DHT22;67177;47.240;-1.546;2023-02-02T03:33:44;8.00;60.20
77985;DHT22;67177;47.240;-1.546;2023-02-02T03:36:09;8.10;60.30
77985;DHT22;67177;47.240;-1.546;2023-02-02T03:38:35;8.10;60.30
77985;DHT22;67177;47.240;-1.546;2023-02-02T03:41:01;8.10;60.40
77985;DHT22;67177;47.240;-1.546;2023-02-02T03:43:27;8.10;60.60
77985;DHT22;67177;47.240;-1.546;2023-02-02T03:45:57;8.10;60.50
77985;DHT22;67177;47.240;-1.546;2023-02-02T03:48:23;8.10;60.30
77985;DHT22;67177;47.240;-1.546;2023-02-02T03:50:48;8.10;60.00
77985;DHT22;67177;47.240;-1.546;2023-02-02T03:53:14;8.10;60.00
77985;DHT22;67177;47.240;-1.546;2023-02-02T03:55:39;8.10;59.80
77985;DHT22;67177;47.240;-1.546;2023-02-02T03:58:06;8.10;59.80
77985;DHT22;67177;47.240;-1.546;2023-02-02T04:00:32;8.10;59.90
77985;DHT22;67177;47.240;-1.546;2023-02-02T04:02:57;8.10;60.00
77985;DHT22;67177;47.240;-1.546;2023-02-02T04:05:23;8.20;59.90
77985;DHT22;67177;47.240;-1.546;2023-02-02T04:07:49;8.20;60.10
77985;DHT22;67177;47.240;-1.546;2023-02-02T04:10:16;8.20;60.10
77985;DHT22;67177;47.240;-1.546;2023-02-02T04:12:42;8.20;60.40
77985;DHT22;67177;47.240;-1.546;2023-02-02T04:15:07;8.20;60.40
77985;DHT22;67177;47.240;-1.546;2023-02-02T04:17:33;8.20;60.40
77985;DHT22;67177;47.240;-1.546;2023-02-02T04:20:00;8.20;60.20
77985;DHT22;67177;47.240;-1.546;2023-02-02T04:22:26;8.20;60.20
77985;DHT22;67177;47.240;-1.546;2023-02-02T04:24:51;8.20;60.20
77985;DHT22;67177;47.240;-1.546;2023-02-02T04:27:17;8.20;60.10
77985;DHT22;67177;47.240;-1.546;2023-02-02T04:29:43;8.20;60.20
77985;DHT22;67177;47.240;-1.546;2023-02-02T04:32:08;8.30;60.20
77985;DHT22;67177;47.240;-1.546;2023-02-02T04:34:34;8.30;60.10
77985;DHT22;67177;47.240;-1.546;2023-02-02T04:36:59;8.30;59.90
77985;DHT22;67177;47.240;-1.546;2023-02-02T04:39:25;8.30;60.20
77985;DHT22;67177;47.240;-1.546;2023-02-02T04:41:51;8.30;60.30
77985;DHT22;67177;47.240;-1.546;2023-02-02T04:44:17;8.20;60.30
77985;DHT22;67177;47.240;-1.546;2023-02-02T04:46:43;8.30;60.30
77985;DHT22;67177;47.240;-1.546;2023-02-02T04:49:09;8.30;60.30
77985;DHT22;67177;47.240;-1.546;2023-02-02T04:51:39;8.30;60.10
77985;DHT22;67177;47.240;-1.546;2023-02-02T04:54:05;8.30;60.30
77985;DHT22;67177;47.240;-1.546;2023-02-02T04:56:31;8.30;60.40
77985;DHT22;67177;47.240;-1.546;2023-02-02T04:58:57;8.30;60.30
77985;DHT22;67177;47.240;-1.546;2023-02-02T05:01:23;8.30;60.00
77985;DHT22;67177;47.240;-1.546;2023-02-02T05:03:49;8.30;60.00
77985;DHT22;67177;47.240;-1.546;2023-02-02T05:06:15;8.30;60.00
77985;DHT22;67177;47.240;-1.546;2023-02-02T05:08:42;8.30;60.00
77985;DHT22;67177;47.240;-1.546;2023-02-02T05:11:10;8.30;60.00
77985;DHT22;67177;47.240;-1.546;2023-02-02T05:13:36;8.30;60.10
77985;DHT22;67177;47.240;-1.546;2023-02-02T05:16:02;8.40;60.00
77985;DHT22;67177;47.240;-1.546;2023-02-02T05:18:27;8.30;60.20
77985;DHT22;67177;47.240;-1.546;2023-02-02T05:20:58;8.30;59.90
77985;DHT22;67177;47.240;-1.546;2023-02-02T05:23:25;8.30;59.90
77985;DHT22;67177;47.240;-1.546;2023-02-02T05:25:51;8.30;60.00
77985;DHT22;67177;47.240;-1.546;2023-02-02T05:28:18;8.30;60.00
77985;DHT22;67177;47.240;-1.546;2023-02-02T05:30:44;8.30;59.90
77985;DHT22;67177;47.240;-1.546;2023-02-02T05:33:09;8.30;60.10
77985;DHT22;67177;47.240;-1.546;2023-02-02T05:35:36;8.30;60.30
77985;DHT22;67177;47.240;-1.546;2023-02-02T05:38:01;8.30;60.00
77985;DHT22;67177;47.240;-1.546;2023-02-02T05:40:27;8.30;60.10
77985;DHT22;67177;47.240;-1.546;2023-02-02T05:42:53;8.40;60.10
77985;DHT22;67177;47.240;-1.546;2023-02-02T05:45:19;8.30;60.20
77985;DHT22;67177;47.240;-1.546;2023-02-02T05:47:44;8.40;60.10
77985;DHT22;67177;47.240;-1.546;2023-02-02T05:50:10;8.40;60.10
77985;DHT22;67177;47.240;-1.546;2023-02-02T05:52:36;8.30;60.10
77985;DHT22;67177;47.240;-1.546;2023-02-02T05:55:03;8.40;60.20
77985;DHT22;67177;47.240;-1.546;2023-02-02T05:57:29;8.40;60.10
77985;DHT22;67177;47.240;-1.546;2023-02-02T05:59:55;8.40;60.20
77985;DHT22;67177;47.240;-1.546;2023-02-02T06:02:20;8.40;60.00
77985;DHT22;67177;47.240;-1.546;2023-02-02T06:04:46;8.40;60.10
77985;DHT22;67177;47.240;-1.546;2023-02-02T06:07:12;8.30;60.30
77985;DHT22;67177;47.240;-1.546;2023-02-02T06:09:38;8.30;60.50
77985;DHT22;67177;47.240;-1.546;2023-02-02T06:12:04;8.30;60.50
77985;DHT22;67177;47.240;-1.546;2023-02-02T06:14:30;8.30;60.50
77985;DHT22;67177;47.240;-1.546;2023-02-02T06:16:55;8.30;60.40
77985;DHT22;67177;47.240;-1.546;2023-02-02T06:19:21;8.30;60.70
77985;DHT22;67177;47.240;-1.546;2023-02-02T06:21:47;8.30;60.70
77985;DHT22;67177;47.240;-1.546;2023-02-02T06:24:13;8.30;60.70
77985;DHT22;67177;47.240;-1.546;2023-02-02T06:26:39;8.30;60.90
77985;DHT22;67177;47.240;-1.546;2023-02-02T06:29:04;8.30;60.90
77985;DHT22;67177;47.240;-1.546;2023-02-02T06:31:31;8.30;61.00
77985;DHT22;67177;47.240;-1.546;2023-02-02T06:33:58;8.30;61.10
77985;DHT22;67177;47.240;-1.546;2023-02-02T06:36:26;8.30;61.10
77985;DHT22;67177;47.240;-1.546;2023-02-02T06:38:54;8.30;61.40
77985;DHT22;67177;47.240;-1.546;2023-02-02T06:41:20;8.30;61.40
77985;DHT22;67177;47.240;-1.546;2023-02-02T06:43:47;8.30;61.50
77985;DHT22;67177;47.240;-1.546;2023-02-02T06:46:13;8.30;61.60
77985;DHT22;67177;47.240;-1.546;2023-02-02T06:48:39;8.30;61.60
77985;DHT22;67177;47.240;-1.546;2023-02-02T06:51:05;8.30;61.60
77985;DHT22;67177;47.240;-1.546;2023-02-02T06:53:31;8.30;61.70
77985;DHT22;67177;47.240;-1.546;2023-02-02T06:56:01;8.30;61.80
77985;DHT22;67177;47.240;-1.546;2023-02-02T06:58:28;8.30;62.00
77985;DHT22;67177;47.240;-1.546;2023-02-02T07:00:54;8.30;61.90
77985;DHT22;67177;47.240;-1.546;2023-02-02T07:03:21;8.30;61.70
77985;DHT22;67177;47.240;-1.546;2023-02-02T07:05:47;8.30;61.80
77985;DHT22;67177;47.240;-1.546;2023-02-02T07:08:13;8.30;61.80
77985;DHT22;67177;47.240;-1.546;2023-02-02T07:10:39;8.30;62.00
77985;DHT22;67177;47.240;-1.546;2023-02-02T07:13:06;8.30;61.90
77985;DHT22;67177;47.240;-1.546;2023-02-02T07:15:32;8.30;61.80
77985;DHT22;67177;47.240;-1.546;2023-02-02T07:17:59;8.30;61.70
77985;DHT22;67177;47.240;-1.546;2023-02-02T07:20:25;8.30;61.70
77985;DHT22;67177;47.240;-1.546;2023-02-02T07:22:51;8.30;61.90
77985;DHT22;67177;47.240;-1.546;2023-02-02T07:25:17;8.30;62.10
77985;DHT22;67177;47.240;-1.546;2023-02-02T07:27:43;8.30;62.10
77985;DHT22;67177;47.240;-1.546;2023-02-02T07:30:09;8.30;62.10
77985;DHT22;67177;47.240;-1.546;2023-02-02T07:32:35;8.30;62.10
77985;DHT22;67177;47.240;-1.546;2023-02-02T07:35:00;8.30;62.10
77985;DHT22;67177;47.240;-1.546;2023-02-02T07:37:26;8.30;62.00
77985;DHT22;67177;47.240;-1.546;2023-02-02T07:39:52;8.30;61.90
77985;DHT22;67177;47.240;-1.546;2023-02-02T07:42:17;8.40;61.70
77985;DHT22;67177;47.240;-1.546;2023-02-02T07:44:43;8.40;61.90
77985;DHT22;67177;47.240;-1.546;2023-02-02T07:47:08;8.40;61.80
77985;DHT22;67177;47.240;-1.546;2023-02-02T07:49:34;8.40;61.60
77985;DHT22;67177;47.240;-1.546;2023-02-02T07:52:00;8.40;61.70
77985;DHT22;67177;47.240;-1.546;2023-02-02T07:54:25;8.40;61.70
77985;DHT22;67177;47.240;-1.546;2023-02-02T07:56:51;8.40;61.80
77985;DHT22;67177;47.240;-1.546;2023-02-02T07:59:17;8.40;61.80
77985;DHT22;67177;47.240;-1.546;2023-02-02T08:01:42;8.40;61.90
77985;DHT22;67177;47.240;-1.546;2023-02-02T08:04:08;8.40;61.80
77985;DHT22;67177;47.240;-1.546;2023-02-02T08:06:36;8.40;61.60
77985;DHT22;67177;47.240;-1.546;2023-02-02T08:09:05;8.50;61.70
77985;DHT22;67177;47.240;-1.546;2023-02-02T08:11:32;8.50;61.70
77985;DHT22;67177;47.240;-1.546;2023-02-02T08:14:00;8.50;61.60
77985;DHT22;67177;47.240;-1.546;2023-02-02T08:16:27;8.50;61.40
77985;DHT22;67177;47.240;-1.546;2023-02-02T08:18:53;8.50;61.30
77985;DHT22;67177;47.240;-1.546;2023-02-02T08:21:19;8.60;61.20
77985;DHT22;67177;47.240;-1.546;2023-02-02T08:23:45;8.60;61.00
77985;DHT22;67177;47.240;-1.546;2023-02-02T08:26:17;8.60;61.20
77985;DHT22;67177;47.240;-1.546;2023-02-02T08:28:45;8.60;61.50
77985;DHT22;67177;47.240;-1.546;2023-02-02T08:31:15;8.60;61.50
77985;DHT22;67177;47.240;-1.546;2023-02-02T08:33:42;8.60;61.30
77985;DHT22;67177;47.240;-1.546;2023-02-02T08:36:18;8.60;61.50
77985;DHT22;67177;47.240;-1.546;2023-02-02T08:38:44;8.60;61.50
77985;DHT22;67177;47.240;-1.546;2023-02-02T08:41:13;8.70;61.70
77985;DHT22;67177;47.240;-1.546;2023-02-02T08:43:40;8.70;61.50
77985;DHT22;67177;47.240;-1.546;2023-02-02T08:46:08;8.70;61.40
77985;DHT22;67177;47.240;-1.546;2023-02-02T08:48:35;8.80;61.10
77985;DHT22;67177;47.240;-1.546;2023-02-02T08:51:01;8.80;61.00
77985;DHT22;67177;47.240;-1.546;2023-02-02T08:53:27;8.80;61.10
77985;DHT22;67177;47.240;-1.546;2023-02-02T08:56:01;8.80;61.20
77985;DHT22;67177;47.240;-1.546;2023-02-02T08:58:29;8.80;61.30
77985;DHT22;67177;47.240;-1.546;2023-02-02T09:01:02;8.80;61.30
77985;DHT22;67177;47.240;-1.546;2023-02-02T09:03:28;8.90;61.10
77985;DHT22;67177;47.240;-1.546;2023-02-02T09:05:53;8.90;61.00
77985;DHT22;67177;47.240;-1.546;2023-02-02T09:08:19;8.90;61.10
77985;DHT22;67177;47.240;-1.546;2023-02-02T09:10:44;9.00;61.00
77985;DHT22;67177;47.240;-1.546;2023-02-02T09:13:10;9.00;60.60
77985;DHT22;67177;47.240;-1.546;2023-02-02T09:15:36;9.00;59.90
77985;DHT22;67177;47.240;-1.546;2023-02-02T09:18:03;9.10;59.80
77985;DHT22;67177;47.240;-1.546;2023-02-02T09:20:28;9.10;59.80
77985;DHT22;67177;47.240;-1.546;2023-02-02T09:22:55;9.10;60.10
77985;DHT22;67177;47.240;-1.546;2023-02-02T09:25:21;9.10;60.20
77985;DHT22;67177;47.240;-1.546;2023-02-02T09:27:47;9.20;60.40
77985;DHT22;67177;47.240;-1.546;2023-02-02T09:30:13;9.20;60.40
77985;DHT22;67177;47.240;-1.546;2023-02-02T09:32:39;9.20;59.90
77985;DHT22;67177;47.240;-1.546;2023-02-02T09:35:04;9.20;60.10
77985;DHT22;67177;47.240;-1.546;2023-02-02T09:37:33;9.20;60.20
77985;DHT22;67177;47.240;-1.546;2023-02-02T09:39:59;9.30;60.20
77985;DHT22;67177;47.240;-1.546;2023-02-02T09:45:17;9.30;60.60
77985;DHT22;67177;47.240;-1.546;2023-02-02T09:51:40;9.40;60.50
77985;DHT22;67177;47.240;-1.546;2023-02-02T09:53:51;9.40;60.30
77985;DHT22;67177;47.240;-1.546;2023-02-02T09:56:30;9.40;60.30
77985;DHT22;67177;47.240;-1.546;2023-02-02T09:58:59;9.50;60.00
77985;DHT22;67177;47.240;-1.546;2023-02-02T10:01:30;9.50;60.00
77985;DHT22;67177;47.240;-1.546;2023-02-02T10:06:55;9.50;60.10
77985;DHT22;67177;47.240;-1.546;2023-02-02T10:12:28;9.60;59.80
77985;DHT22;67177;47.240;-1.546;2023-02-02T10:15:14;9.60;59.20
77985;DHT22;67177;47.240;-1.546;2023-02-02T10:18:05;9.70;59.30
77985;DHT22;67177;47.240;-1.546;2023-02-02T10:20:43;9.70;59.40
77985;DHT22;67177;47.240;-1.546;2023-02-02T10:23:25;9.70;59.40
77985;DHT22;67177;47.240;-1.546;2023-02-02T10:31:01;9.80;59.10
77985;DHT22;67177;47.240;-1.546;2023-02-02T10:33:36;9.80;59.20
77985;DHT22;67177;47.240;-1.546;2023-02-02T10:36:16;9.80;59.30
77985;DHT22;67177;47.240;-1.546;2023-02-02T10:38:59;9.90;59.00
77985;DHT22;67177;47.240;-1.546;2023-02-02T10:44:29;10.00;58.40
77985;DHT22;67177;47.240;-1.546;2023-02-02T10:46:59;10.00;58.20
77985;DHT22;67177;47.240;-1.546;2023-02-02T10:49:35;10.00;57.90
77985;DHT22;67177;47.240;-1.546;2023-02-02T10:58:00;10.10;58.20
77985;DHT22;67177;47.240;-1.546;2023-02-02T11:03:13;10.20;58.10
77985;DHT22;67177;47.240;-1.546;2023-02-02T11:05:39;10.20;58.10
77985;DHT22;67177;47.240;-1.546;2023-02-02T11:08:33;10.30;58.20
77985;DHT22;67177;47.240;-1.546;2023-02-02T11:16:32;10.40;58.70
77985;DHT22;67177;47.240;-1.546;2023-02-02T11:18:58;10.40;58.30
77985;DHT22;67177;47.240;-1.546;2023-02-02T11:21:24;10.40;58.00
77985;DHT22;67177;47.240;-1.546;2023-02-02T11:26:24;10.50;57.70
77985;DHT22;67177;47.240;-1.546;2023-02-02T11:28:53;10.50;57.60
77985;DHT22;67177;47.240;-1.546;2023-02-02T11:31:33;10.50;57.70
77985;DHT22;67177;47.240;-1.546;2023-02-02T11:36:39;10.50;57.50
77985;DHT22;67177;47.240;-1.546;2023-02-02T11:39:34;10.60;57.70
77985;DHT22;67177;47.240;-1.546;2023-02-02T11:42:03;10.60;57.60
77985;DHT22;67177;47.240;-1.546;2023-02-02T11:44:29;10.60;57.40
77985;DHT22;67177;47.240;-1.546;2023-02-02T11:46:57;10.60;57.30
77985;DHT22;67177;47.240;-1.546;2023-02-02T11:49:24;10.60;56.90
77985;DHT22;67177;47.240;-1.546;2023-02-02T11:52:22;10.60;56.80
77985;DHT22;67177;47.240;-1.546;2023-02-02T11:54:54;10.60;56.90
77985;DHT22;67177;47.240;-1.546;2023-02-02T11:57:23;10.50;56.70
77985;DHT22;67177;47.240;-1.546;2023-02-02T12:02:35;10.50;56.90
77985;DHT22;67177;47.240;-1.546;2023-02-02T12:07:35;10.50;56.80
77985;DHT22;67177;47.240;-1.546;2023-02-02T12:13:00;10.50;56.70
77985;DHT22;67177;47.240;-1.546;2023-02-02T12:15:43;10.50;56.60
77985;DHT22;67177;47.240;-1.546;2023-02-02T12:38:04;10.60;56.80
77985;DHT22;67177;47.240;-1.546;2023-02-02T12:52:01;10.60;57.00
77985;DHT22;67177;47.240;-1.546;2023-02-02T12:54:40;10.60;57.00
77985;DHT22;67177;47.240;-1.546;2023-02-02T12:57:26;10.60;57.10
77985;DHT22;67177;47.240;-1.546;2023-02-02T13:02:32;10.60;57.10
77985;DHT22;67177;47.240;-1.546;2023-02-02T13:07:37;10.70;56.90
77985;DHT22;67177;47.240;-1.546;2023-02-02T13:12:45;10.70;56.60
77985;DHT22;67177;47.240;-1.546;2023-02-02T13:15:16;10.80;56.50
77985;DHT22;67177;47.240;-1.546;2023-02-02T13:20:26;10.80;56.30
77985;DHT22;67177;47.240;-1.546;2023-02-02T13:22:56;10.80;56.50
77985;DHT22;67177;47.240;-1.546;2023-02-02T13:25:33;10.80;56.30
77985;DHT22;67177;47.240;-1.546;2023-02-02T13:28:01;10.80;56.20
77985;DHT22;67177;47.240;-1.546;2023-02-02T13:30:33;10.80;56.00
77985;DHT22;67177;47.240;-1.546;2023-02-02T13:33:24;10.80;56.30
77985;DHT22;67177;47.240;-1.546;2023-02-02T13:35:54;10.80;56.40
77985;DHT22;67177;47.240;-1.546;2023-02-02T13:38:27;10.80;56.20
77985;DHT22;67177;47.240;-1.546;2023-02-02T13:40:58;10.90;56.10
77985;DHT22;67177;47.240;-1.546;2023-02-02T13:59:12;11.00;56.10
77985;DHT22;67177;47.240;-1.546;2023-02-02T14:01:45;11.00;56.00
77985;DHT22;67177;47.240;-1.546;2023-02-02T14:04:21;11.00;55.90
77985;DHT22;67177;47.240;-1.546;2023-02-02T14:06:54;11.00;55.80
77985;DHT22;67177;47.240;-1.546;2023-02-02T14:09:25;11.00;56.20
77985;DHT22;67177;47.240;-1.546;2023-02-02T14:11:57;11.00;56.30
77985;DHT22;67177;47.240;-1.546;2023-02-02T14:14:24;11.00;56.30
77985;DHT22;67177;47.240;-1.546;2023-02-02T14:17:47;11.00;56.10
77985;DHT22;67177;47.240;-1.546;2023-02-02T14:19:55;11.00;56.20
77985;DHT22;67177;47.240;-1.546;2023-02-02T14:28:39;11.10;56.50
77985;DHT22;67177;47.240;-1.546;2023-02-02T14:31:27;11.10;56.50
77985;DHT22;67177;47.240;-1.546;2023-02-02T14:34:35;11.10;56.60
77985;DHT22;67177;47.240;-1.546;2023-02-02T14:45:44;11.00;56.50
77985;DHT22;67177;47.240;-1.546;2023-02-02T14:48:21;11.00;56.40
77985;DHT22;67177;47.240;-1.546;2023-02-02T14:50:57;11.00;56.60
77985;DHT22;67177;47.240;-1.546;2023-02-02T14:53:33;11.00;56.70
77985;DHT22;67177;47.240;-1.546;2023-02-02T14:58:54;11.00;56.80
77985;DHT22;67177;47.240;-1.546;2023-02-02T15:01:28;11.00;56.70
77985;DHT22;67177;47.240;-1.546;2023-02-02T15:06:42;11.00;56.60
77985;DHT22;67177;47.240;-1.546;2023-02-02T15:14:44;10.90;56.50
77985;DHT22;67177;47.240;-1.546;2023-02-02T15:23:14;10.90;56.30
77985;DHT22;67177;47.240;-1.546;2023-02-02T15:26:05;10.80;56.40
77985;DHT22;67177;47.240;-1.546;2023-02-02T15:31:21;10.80;56.40
77985;DHT22;67177;47.240;-1.546;2023-02-02T15:33:56;10.70;56.30
77985;DHT22;67177;47.240;-1.546;2023-02-02T15:36:30;10.70;56.40
77985;DHT22;67177;47.240;-1.546;2023-02-02T15:39:12;10.70;56.60
77985;DHT22;67177;47.240;-1.546;2023-02-02T15:41:42;10.70;56.70
77985;DHT22;67177;47.240;-1.546;2023-02-02T15:44:20;10.70;56.70
77985;DHT22;67177;47.240;-1.546;2023-02-02T15:46:47;10.70;56.90
77985;DHT22;67177;47.240;-1.546;2023-02-02T15:49:27;10.60;57.00
77985;DHT22;67177;47.240;-1.546;2023-02-02T15:51:56;10.60;57.00
77985;DHT22;67177;47.240;-1.546;2023-02-02T15:54:32;10.60;57.00
77985;DHT22;67177;47.240;-1.546;2023-02-02T15:57:00;10.60;57.20
77985;DHT22;67177;47.240;-1.546;2023-02-02T15:59:29;10.50;57.30
77985;DHT22;67177;47.240;-1.546;2023-02-02T16:02:04;10.60;57.30
77985;DHT22;67177;47.240;-1.546;2023-02-02T16:04:41;10.50;57.30
77985;DHT22;67177;47.240;-1.546;2023-02-02T16:07:29;10.50;57.40
77985;DHT22;67177;47.240;-1.546;2023-02-02T16:10:00;10.50;57.60
77985;DHT22;67177;47.240;-1.546;2023-02-02T16:12:26;10.50;57.70
77985;DHT22;67177;47.240;-1.546;2023-02-02T16:14:53;10.50;57.70
77985;DHT22;67177;47.240;-1.546;2023-02-02T16:17:20;10.50;57.70
77985;DHT22;67177;47.240;-1.546;2023-02-02T16:19:48;10.50;57.80
77985;DHT22;67177;47.240;-1.546;2023-02-02T16:22:17;10.40;57.80
77985;DHT22;67177;47.240;-1.546;2023-02-02T16:24:52;10.40;57.70
77985;DHT22;67177;47.240;-1.546;2023-02-02T16:27:21;10.40;57.90
77985;DHT22;67177;47.240;-1.546;2023-02-02T16:29:48;10.40;58.00
77985;DHT22;67177;47.240;-1.546;2023-02-02T16:34:53;10.30;58.10
77985;DHT22;67177;47.240;-1.546;2023-02-02T16:37:28;10.30;58.20
77985;DHT22;67177;47.240;-1.546;2023-02-02T16:42:41;10.30;58.50
77985;DHT22;67177;47.240;-1.546;2023-02-02T16:45:34;10.20;58.40
77985;DHT22;67177;47.240;-1.546;2023-02-02T16:53:46;10.20;58.90
77985;DHT22;67177;47.240;-1.546;2023-02-02T16:58:50;10.10;59.10
77985;DHT22;67177;47.240;-1.546;2023-02-02T17:01:33;10.10;59.20
77985;DHT22;67177;47.240;-1.546;2023-02-02T17:03:59;10.10;59.30
77985;DHT22;67177;47.240;-1.546;2023-02-02T17:06:28;10.10;59.30
77985;DHT22;67177;47.240;-1.546;2023-02-02T17:08:54;10.10;59.30
77985;DHT22;67177;47.240;-1.546;2023-02-02T17:11:23;10.10;59.40
77985;DHT22;67177;47.240;-1.546;2023-02-02T17:13:50;10.10;59.50
77985;DHT22;67177;47.240;-1.546;2023-02-02T17:16:19;10.00;59.60
77985;DHT22;67177;47.240;-1.546;2023-02-02T17:18:45;10.00;59.80
77985;DHT22;67177;47.240;-1.546;2023-02-02T17:21:20;10.00;59.80
77985;DHT22;67177;47.240;-1.546;2023-02-02T17:23:49;10.00;59.70
77985;DHT22;67177;47.240;-1.546;2023-02-02T17:26:16;10.00;59.80
77985;DHT22;67177;47.240;-1.546;2023-02-02T17:28:42;10.00;59.70
77985;DHT22;67177;47.240;-1.546;2023-02-02T17:31:10;10.00;59.90
77985;DHT22;67177;47.240;-1.546;2023-02-02T17:33:37;10.00;59.90
77985;DHT22;67177;47.240;-1.546;2023-02-02T17:36:03;10.00;60.10
77985;DHT22;67177;47.240;-1.546;2023-02-02T17:38:30;10.00;60.00
77985;DHT22;67177;47.240;-1.546;2023-02-02T17:40:58;9.90;60.20
77985;DHT22;67177;47.240;-1.546;2023-02-02T17:43:25;9.90;60.40
77985;DHT22;67177;47.240;-1.546;2023-02-02T17:45:51;9.90;60.40
77985;DHT22;67177;47.240;-1.546;2023-02-02T17:48:17;9.90;60.50
77985;DHT22;67177;47.240;-1.546;2023-02-02T17:50:45;9.90;60.70
77985;DHT22;67177;47.240;-1.546;2023-02-02T17:53:13;9.90;60.70
77985;DHT22;67177;47.240;-1.546;2023-02-02T17:55:41;9.90;60.90
77985;DHT22;67177;47.240;-1.546;2023-02-02T17:58:09;9.90;60.90
77985;DHT22;67177;47.240;-1.546;2023-02-02T18:00:38;9.90;61.00
77985;DHT22;67177;47.240;-1.546;2023-02-02T18:03:11;9.80;61.20
77985;DHT22;67177;47.240;-1.546;2023-02-02T18:05:37;9.80;61.40
77985;DHT22;67177;47.240;-1.546;2023-02-02T18:08:03;9.80;61.40
77985;DHT22;67177;47.240;-1.546;2023-02-02T18:10:29;9.80;61.60
77985;DHT22;67177;47.240;-1.546;2023-02-02T18:12:55;9.80;61.60
77985;DHT22;67177;47.240;-1.546;2023-02-02T18:15:22;9.80;61.60
77985;DHT22;67177;47.240;-1.546;2023-02-02T18:17:48;9.80;61.70
77985;DHT22;67177;47.240;-1.546;2023-02-02T18:20:14;9.80;61.60
77985;DHT22;67177;47.240;-1.546;2023-02-02T18:22:41;9.80;61.60
77985;DHT22;67177;47.240;-1.546;2023-02-02T18:25:12;9.80;61.80
77985;DHT22;67177;47.240;-1.546;2023-02-02T18:27:38;9.80;61.70
77985;DHT22;67177;47.240;-1.546;2023-02-02T18:30:04;9.80;61.70
77985;DHT22;67177;47.240;-1.546;2023-02-02T18:32:30;9.80;61.60
77985;DHT22;67177;47.240;-1.546;2023-02-02T18:34:55;9.80;61.70
77985;DHT22;67177;47.240;-1.546;2023-02-02T18:37:22;9.80;61.80
77985;DHT22;67177;47.240;-1.546;2023-02-02T18:39:50;9.80;61.70